Seneca Castle, NY (14547)

10:11 PM EDT on May 04, 2015 (GMT -0400)
J MInns Farm | | Change Station
CLOSE
Current Station
Personal Weather Station
Location: Stanley, NY
Elevation: 833 ft
Nearby Weather Stations

Elev 833 ft 42.87 °N, 77.09 °W | Updated 1 minute ago

Overcast
Overcast
65.9 °F
Feels Like 65.9 °F
N
7.0
Wind Variable Wind from WNW
Gusts 7.0 mph

Today
High -- | Low -- °F
--% Chance of Precip.
Yesterday
High -- | Low -- °F
Precip. -- in
5:58 AM 8:12 PM
Full, 99% visible
Pressure 30.12 in
Visibility 10.0 miles
Clouds Overcast 9000 ft
Dew Point 56 °F
Humidity 70%
Rainfall 0.00 in
Snow Depth Not available.
UV 0 out of 12
Pollen 11.20 out of 12
Air Quality Not available.
Flu Activity Widespread
METAR KPEO 050153Z AUTO 28012G21KT 10SM OVC090 21/11 A3014 RMK AO2 PK WND 28026/0100 SLP200 T02110111

More Conditions Fewer Conditions

Pressure 30.12 in
Visibility 10.0 miles
Clouds Overcast 9000 ft
Dew Point 56 °F
Humidity 70%
Rainfall 0.00 in
Snow Depth Not available.
UV 0 out of 12
Pollen 11.20 out of 12
Air Quality Not available.
Flu Activity Widespread
METAR KPEO 050153Z AUTO 28012G21KT 10SM OVC090 21/11 A3014 RMK AO2 PK WND 28026/0100 SLP200 T02110111

More Conditions Fewer Conditions

Nepal has a long way to go to dig out and rebuild from a devastating earthquake. We have teamed up with several charities and organizations to make contributing to the relief effort as easy as possible.
How you can help: Portlight Strategies | Red Cross

10-Day Weather Forecast

Almanac

Astronomy

May. 04, 2015 Rise Set
Actual Time
Civil Twilight
Nautical Twilight
Astronomical Twilight
Moon
Length of Visible Light
Length of Day
Tomorrow will be .
, % of the Moon is Illuminated

Today's Extremes

State Highs State Lows

Community

WunderPhotos

Upload Photos

1,818,783 photos uploaded!

WunderBlogs® & News

Nearby

Air Quality

  Air Quality AQ Index Pollutant
Not available.

Snow Depth

Station Depth Elevation

Earthquake Activity

City Distance Mag. Time & Date
Minimum magnitude displayed is 2.5.

Coastal Water Temperatures

Place Temperature

Stations

Nearby Weather Stations

Station Location Temp. Windchill Dew Point Humidity Wind Precip. Elev Updated Type